Bonita, CA (91908)

6:37 AM PDT on September 02, 2015 (GMT -0700)
Lower Surrey Drive | | Change Station
CLOSE
Current Station
Personal Weather Station
Location: Bonita, CA
Elevation: 150 ft
Nearby Weather Stations

Elev 150 ft 32.65 °N, 117.04 °W | Updated 30 seconds ago

Overcast
Overcast
68.9 °F
Feels Like 68.9 °F
N
0.0
Wind Variable Wind from WNW
Gusts 0.0 mph

Today
High -- | Low -- °F
--% Chance of Precip.
Yesterday
High -- | Low -- °F
Precip. -- in
6:23 AM 7:11 PM
Waning Gibbous, 80% visible
Pressure 29.95 in
Visibility 10.0 miles
Clouds Overcast 2000 ft
Dew Point 61 °F
Humidity 77%
Rainfall 0.00 in
Snow Depth Not available.
UV 0.0 out of 12
Pollen 7.00 out of 12
Air Quality Not available.
Flu Activity Not available.
METAR KSDM 021253Z AUTO 30003KT 10SM OVC020 19/15 A2996 RMK AO2 SLP141 T01940150
Pressure 29.95 in
Visibility 10.0 miles
Clouds Overcast 2000 ft
Dew Point 61 °F
Humidity 77%
Rainfall 0.00 in
Snow Depth Not available.
UV 0.0 out of 12
Pollen 7.00 out of 12
Air Quality Not available.
Flu Activity Not available.
METAR KSDM 021253Z AUTO 30003KT 10SM OVC020 19/15 A2996 RMK AO2 SLP141 T01940150

10-Day Weather Forecast

×

Almanac

Astronomy

Sep. 02, 2015 Rise Set
Actual Time
Civil Twilight
Nautical Twilight
Astronomical Twilight
Moon
Length of Visible Light
Length of Day
Tomorrow will be .
, % of the Moon is Illuminated

Today's Extremes

State Highs State Lows

Community

WunderPhotos

Upload Photos

1,851,751 photos uploaded!

WunderBlogs® & News

Nearby

Air Quality

  Air Quality AQ Index Pollutant
Not available.

Snow Depth

Station Depth Elevation

Earthquake Activity

City Distance Mag. Time & Date
Minimum magnitude displayed is 2.5.

Coastal Water Temperatures

Place Temperature

Stations

Nearby Weather Stations

Station Location Temp. Windchill Dew Point Humidity Wind Precip. Elev Updated Type